createdAt,value
2019-05-01T00:09:35.947Z,1012.10
2019-05-01T00:24:36.071Z,1011.95
2019-05-01T00:39:36.269Z,1011.69
2019-05-01T00:54:36.458Z,1011.63
2019-05-01T01:09:36.581Z,1011.57
2019-05-01T01:24:36.808Z,1011.51
2019-05-01T01:39:37.044Z,1011.41
2019-05-01T01:54:37.353Z,1011.24
2019-05-01T02:09:37.710Z,1011.16
2019-05-01T02:24:37.889Z,1011.08
2019-05-01T02:39:38.309Z,1011.07
2019-05-01T02:54:39.260Z,1010.91
2019-05-01T03:09:40.986Z,1010.80
2019-05-01T03:24:41.709Z,1010.75
2019-05-01T03:39:42.169Z,1010.68
2019-05-01T03:54:42.797Z,1010.74
2019-05-01T04:09:43.183Z,1010.84
2019-05-01T04:24:43.483Z,1010.83
2019-05-01T04:39:44.085Z,1010.86
2019-05-01T04:54:44.319Z,1010.88
2019-05-01T05:09:45.152Z,1010.99
2019-05-01T05:24:45.963Z,1011.13
2019-05-01T05:39:46.287Z,1011.24
2019-05-01T05:54:46.429Z,1011.14
2019-05-01T06:09:48.441Z,1011.17
2019-05-01T06:24:49.915Z,1011.21
2019-05-01T06:39:50.116Z,1011.22
2019-05-01T06:54:52.059Z,1011.34
2019-05-01T07:09:53.095Z,1011.43
2019-05-01T07:24:53.315Z,1011.27
2019-05-01T07:39:53.535Z,1011.36
2019-05-01T07:54:54.210Z,1011.29
2019-05-01T08:09:55.081Z,1011.35
2019-05-01T08:24:58.710Z,1011.38
2019-05-01T08:40:00.329Z,1011.45
2019-05-01T08:55:04.243Z,1011.37
2019-05-01T09:10:08.970Z,1011.28
2019-05-01T09:25:09.168Z,1011.25
2019-05-01T09:40:10.420Z,1011.19
2019-05-01T09:55:11.119Z,1011.01
2019-05-01T10:10:11.324Z,1010.85
2019-05-01T10:25:12.345Z,1010.80
2019-05-01T10:40:13.769Z,1010.64
2019-05-01T10:55:14.422Z,1010.46
2019-05-01T11:10:14.844Z,1010.44
2019-05-01T11:25:15.080Z,1010.37
2019-05-01T11:40:15.279Z,1010.15
2019-05-01T11:55:15.416Z,1010.31
2019-05-01T12:10:15.709Z,1010.20
2019-05-01T12:25:15.829Z,1010.01
2019-05-01T12:40:16.059Z,1009.94
2019-05-01T12:55:16.279Z,1009.73
2019-05-01T13:10:16.701Z,1009.52
2019-05-01T13:25:16.893Z,1009.54
2019-05-01T13:40:17.129Z,1009.30
2019-05-01T13:55:17.536Z,1009.07
2019-05-01T14:10:17.626Z,1009.02
2019-05-01T14:25:18.014Z,1008.90
2019-05-01T14:40:18.255Z,1008.64
2019-05-01T14:55:19.191Z,1008.57
2019-05-01T15:10:19.421Z,1008.39
2019-05-01T15:25:19.667Z,1008.31
2019-05-01T15:40:20.233Z,1008.24
2019-05-01T15:55:20.465Z,1008.21
2019-05-01T16:10:20.616Z,1008.16
2019-05-01T16:25:21.108Z,1007.97
2019-05-01T16:40:21.263Z,1007.93
2019-05-01T16:55:21.532Z,1007.84
2019-05-01T17:10:22.053Z,1007.82
2019-05-01T17:25:22.188Z,1007.84
2019-05-01T17:40:22.596Z,1007.80
2019-05-01T17:55:22.849Z,1007.84
2019-05-01T18:10:23.159Z,1007.76
2019-05-01T18:25:23.567Z,1007.80
2019-05-01T18:40:23.747Z,1007.76
2019-05-01T18:55:25.901Z,1007.81
2019-05-01T19:10:26.410Z,1007.81
2019-05-01T19:25:26.756Z,1007.89
2019-05-01T19:40:30.787Z,1007.76
2019-05-01T19:55:32.250Z,1007.66
2019-05-01T20:10:32.354Z,1007.51
2019-05-01T20:25:32.581Z,1007.39
2019-05-01T20:40:32.806Z,1007.30
2019-05-01T20:55:34.057Z,1007.30
2019-05-01T21:10:35.936Z,1007.35
2019-05-01T21:25:36.411Z,1007.31
2019-05-01T21:40:40.663Z,1007.30
2019-05-01T21:55:40.835Z,1007.18
2019-05-01T22:10:51.471Z,1007.00
2019-05-01T22:25:47.484Z,1006.89
2019-05-01T22:40:47.703Z,1006.63
2019-05-01T22:55:47.920Z,1006.57
2019-05-01T23:10:48.585Z,1006.49
2019-05-01T23:25:48.569Z,1006.28
2019-05-01T23:40:50.948Z,1006.03
2019-05-01T23:55:54.536Z,1005.85
